createdAt,value
2022-10-09T00:03:48.723Z,15
2022-10-09T00:13:48.731Z,15
2022-10-09T00:23:48.703Z,15.1
2022-10-09T00:33:48.665Z,14.9
2022-10-09T00:43:48.667Z,14.9
2022-10-09T00:53:48.653Z,14.9
2022-10-09T01:03:48.609Z,14.9
2022-10-09T01:13:48.608Z,14.9
2022-10-09T01:23:48.593Z,14.8
2022-10-09T01:33:48.560Z,14.8
2022-10-09T01:43:48.564Z,14.7
2022-10-09T01:53:48.544Z,14.6
2022-10-09T02:03:48.503Z,14.6
2022-10-09T02:13:48.502Z,14.5
2022-10-09T02:23:48.484Z,14.5
2022-10-09T02:33:48.450Z,14.4
2022-10-09T02:43:48.449Z,14.3
2022-10-09T02:53:48.433Z,14.3
2022-10-09T03:03:48.387Z,14.2
2022-10-09T03:13:48.406Z,14.1
2022-10-09T03:23:48.373Z,14.1
2022-10-09T03:33:48.335Z,14
2022-10-09T03:43:48.346Z,14.1
2022-10-09T03:53:48.338Z,14.1
2022-10-09T04:03:48.293Z,14.1
2022-10-09T04:13:48.290Z,14.1
2022-10-09T04:23:48.239Z,14.1
2022-10-09T04:33:48.228Z,14
2022-10-09T04:43:48.239Z,14
2022-10-09T04:53:48.191Z,14
2022-10-09T05:03:48.215Z,13.9
2022-10-09T05:13:48.187Z,13.9
2022-10-09T05:23:48.130Z,13.9
2022-10-09T05:33:48.107Z,13.8
2022-10-09T05:43:48.134Z,13.9
2022-10-09T05:53:48.076Z,13.9
2022-10-09T06:03:48.082Z,13.8
2022-10-09T06:13:48.082Z,13.9
2022-10-09T06:23:48.029Z,13.8
2022-10-09T06:33:48.008Z,14
2022-10-09T06:43:48.019Z,14
2022-10-09T06:53:47.970Z,14.2
2022-10-09T07:03:47.950Z,14.2
2022-10-09T07:13:47.965Z,14.5
2022-10-09T07:23:47.915Z,14.8
2022-10-09T07:33:47.912Z,15.1
2022-10-09T07:43:47.915Z,15.6
2022-10-09T07:53:47.859Z,15.8
2022-10-09T08:03:47.845Z,15.8
2022-10-09T08:23:47.811Z,16.3
2022-10-09T08:33:47.792Z,16.5
2022-10-09T08:43:47.815Z,16.7
2022-10-09T08:53:47.786Z,16.8
2022-10-09T09:03:47.718Z,17.1
2022-10-09T09:13:47.718Z,17.4
2022-10-09T09:23:47.728Z,17.6
2022-10-09T09:33:47.666Z,17.6
2022-10-09T09:43:47.650Z,17.8
2022-10-09T09:53:47.664Z,17.9
2022-10-09T10:03:47.612Z,18.4
2022-10-09T10:13:47.599Z,18.9
2022-10-09T10:33:47.554Z,19.7
2022-10-09T10:43:47.536Z,20.5
2022-10-09T10:53:47.538Z,21.1
2022-10-09T11:03:47.572Z,21.7
2022-10-09T11:13:47.472Z,22
2022-10-09T11:23:47.484Z,21.9
2022-10-09T11:33:47.466Z,22.2
2022-10-09T11:43:47.410Z,23.4
2022-10-09T11:53:47.426Z,23.6
2022-10-09T12:03:47.365Z,23.3
2022-10-09T12:13:47.351Z,23.2
2022-10-09T12:23:47.367Z,23.5
2022-10-09T12:33:47.306Z,24.9
2022-10-09T12:43:47.297Z,26.2
2022-10-09T12:53:47.299Z,27.7
2022-10-09T13:03:47.239Z,27.9
2022-10-09T13:13:47.222Z,28.3
2022-10-09T13:23:48.021Z,27.4
2022-10-09T13:33:47.186Z,26.5
2022-10-09T13:43:47.153Z,25.9
2022-10-09T13:53:47.160Z,25.2
2022-10-09T14:03:47.106Z,24.7
2022-10-09T14:13:47.122Z,24
2022-10-09T14:23:47.102Z,23.7
2022-10-09T14:33:47.053Z,23.5
2022-10-09T14:43:47.037Z,23.2
2022-10-09T14:53:47.036Z,22.9
2022-10-09T15:03:47.029Z,22.5
2022-10-09T15:13:46.994Z,22.4
2022-10-09T15:23:46.984Z,22.2
2022-10-09T15:33:46.922Z,22.1
2022-10-09T15:43:46.899Z,21.5
2022-10-09T15:53:46.912Z,21
2022-10-09T16:03:46.858Z,20.5
2022-10-09T16:13:46.880Z,20
2022-10-09T16:23:46.846Z,19.4
2022-10-09T16:33:46.800Z,18.8
2022-10-09T16:43:46.784Z,18.1
2022-10-09T16:53:46.800Z,17.4
2022-10-09T17:03:46.735Z,16.8
2022-10-09T17:13:46.759Z,16.4
2022-10-09T17:23:46.796Z,16.1
2022-10-09T17:33:46.693Z,15.8
2022-10-09T17:43:46.682Z,15.7
2022-10-09T17:53:46.747Z,15.5
2022-10-09T18:03:46.625Z,15.4
2022-10-09T18:13:46.652Z,15.3
2022-10-09T18:23:46.592Z,15.3
2022-10-09T18:33:46.565Z,15.3
2022-10-09T18:43:46.562Z,15.3
2022-10-09T18:53:46.533Z,15.2
2022-10-09T19:03:49.892Z,15.1
2022-10-09T19:13:46.538Z,15.2
2022-10-09T19:23:46.482Z,15.1
2022-10-09T19:33:46.456Z,15.1
2022-10-09T19:43:46.460Z,15.1
2022-10-09T19:53:46.440Z,15
2022-10-09T20:03:46.400Z,15
2022-10-09T20:13:46.415Z,15
2022-10-09T20:23:46.368Z,14.9
2022-10-09T20:33:46.353Z,14.9
2022-10-09T20:43:46.333Z,14.8
2022-10-09T20:53:46.312Z,14.8
2022-10-09T21:03:46.291Z,14.7
2022-10-09T21:13:46.303Z,14.8
2022-10-09T21:23:46.267Z,14.8
2022-10-09T21:33:46.254Z,14.7
2022-10-09T21:43:46.326Z,14.7
2022-10-09T21:53:46.204Z,14.7
2022-10-09T22:03:46.185Z,14.5
2022-10-09T22:13:46.206Z,14.4
2022-10-09T22:23:46.146Z,14.3
2022-10-09T22:33:46.132Z,14.2
2022-10-09T22:43:46.144Z,14.1
2022-10-09T22:53:46.133Z,14
2022-10-09T23:03:46.074Z,13.9
2022-10-09T23:13:46.061Z,13.8
2022-10-09T23:23:46.077Z,13.8
2022-10-09T23:33:46.032Z,13.8
2022-10-09T23:43:46.011Z,13.8
2022-10-09T23:53:46.025Z,13.8
